sensor_id;sensor_type;location;lat;lon;timestamp;P1;durP1;ratioP1;P2;durP2;ratioP2
13327;SDS011;6733;51.044;3.746;2024-01-06T00:02:24;6.30;;;1.63;;
13327;SDS011;6733;51.044;3.746;2024-01-06T00:04:51;3.97;;;1.70;;
13327;SDS011;6733;51.044;3.746;2024-01-06T00:07:17;5.40;;;1.83;;
13327;SDS011;6733;51.044;3.746;2024-01-06T00:09:43;6.13;;;1.77;;
13327;SDS011;6733;51.044;3.746;2024-01-06T00:12:10;4.73;;;1.70;;
13327;SDS011;6733;51.044;3.746;2024-01-06T00:14:36;4.17;;;1.57;;
13327;SDS011;6733;51.044;3.746;2024-01-06T00:17:03;5.17;;;1.60;;
13327;SDS011;6733;51.044;3.746;2024-01-06T00:19:29;5.17;;;1.63;;
13327;SDS011;6733;51.044;3.746;2024-01-06T00:21:55;5.10;;;1.57;;
13327;SDS011;6733;51.044;3.746;2024-01-06T00:24:21;5.40;;;1.70;;
13327;SDS011;6733;51.044;3.746;2024-01-06T00:26:47;8.40;;;1.90;;
13327;SDS011;6733;51.044;3.746;2024-01-06T00:29:14;4.57;;;1.33;;
13327;SDS011;6733;51.044;3.746;2024-01-06T00:31:40;4.70;;;1.30;;
13327;SDS011;6733;51.044;3.746;2024-01-06T00:34:06;5.97;;;1.40;;
13327;SDS011;6733;51.044;3.746;2024-01-06T00:36:32;3.20;;;1.20;;
13327;SDS011;6733;51.044;3.746;2024-01-06T00:38:58;3.50;;;1.40;;
13327;SDS011;6733;51.044;3.746;2024-01-06T00:41:24;5.10;;;1.10;;
13327;SDS011;6733;51.044;3.746;2024-01-06T00:43:51;2.33;;;1.10;;
13327;SDS011;6733;51.044;3.746;2024-01-06T00:46:17;4.10;;;1.30;;
13327;SDS011;6733;51.044;3.746;2024-01-06T00:48:43;5.70;;;1.57;;
13327;SDS011;6733;51.044;3.746;2024-01-06T00:51:09;2.77;;;1.20;;
13327;SDS011;6733;51.044;3.746;2024-01-06T00:53:35;4.90;;;1.73;;
13327;SDS011;6733;51.044;3.746;2024-01-06T00:56:01;6.57;;;1.23;;
13327;SDS011;6733;51.044;3.746;2024-01-06T00:58:28;4.93;;;1.70;;
13327;SDS011;6733;51.044;3.746;2024-01-06T01:00:54;7.53;;;1.70;;
13327;SDS011;6733;51.044;3.746;2024-01-06T01:03:20;4.67;;;1.60;;
13327;SDS011;6733;51.044;3.746;2024-01-06T01:05:46;5.83;;;1.70;;
13327;SDS011;6733;51.044;3.746;2024-01-06T01:08:13;3.93;;;1.50;;
13327;SDS011;6733;51.044;3.746;2024-01-06T01:10:38;5.53;;;1.40;;
13327;SDS011;6733;51.044;3.746;2024-01-06T01:13:05;5.70;;;1.60;;
13327;SDS011;6733;51.044;3.746;2024-01-06T01:15:31;5.17;;;1.50;;
13327;SDS011;6733;51.044;3.746;2024-01-06T01:17:57;3.37;;;1.57;;
13327;SDS011;6733;51.044;3.746;2024-01-06T01:20:23;2.70;;;1.10;;
13327;SDS011;6733;51.044;3.746;2024-01-06T01:22:49;6.53;;;1.60;;
13327;SDS011;6733;51.044;3.746;2024-01-06T01:25:15;4.10;;;1.70;;
13327;SDS011;6733;51.044;3.746;2024-01-06T01:27:42;3.93;;;1.40;;
13327;SDS011;6733;51.044;3.746;2024-01-06T01:30:08;4.77;;;1.43;;
13327;SDS011;6733;51.044;3.746;2024-01-06T01:32:35;5.93;;;1.60;;
13327;SDS011;6733;51.044;3.746;2024-01-06T01:35:02;2.67;;;1.40;;
13327;SDS011;6733;51.044;3.746;2024-01-06T01:37:29;3.20;;;1.40;;
13327;SDS011;6733;51.044;3.746;2024-01-06T01:39:55;4.67;;;1.50;;
13327;SDS011;6733;51.044;3.746;2024-01-06T01:42:21;3.53;;;1.40;;
13327;SDS011;6733;51.044;3.746;2024-01-06T01:44:47;2.53;;;1.50;;
13327;SDS011;6733;51.044;3.746;2024-01-06T01:47:14;4.17;;;1.57;;
13327;SDS011;6733;51.044;3.746;2024-01-06T01:49:46;4.20;;;1.70;;
13327;SDS011;6733;51.044;3.746;2024-01-06T01:52:13;4.20;;;1.73;;
13327;SDS011;6733;51.044;3.746;2024-01-06T01:54:40;2.53;;;1.53;;
13327;SDS011;6733;51.044;3.746;2024-01-06T01:57:08;3.60;;;1.50;;
13327;SDS011;6733;51.044;3.746;2024-01-06T01:59:36;3.80;;;1.30;;
13327;SDS011;6733;51.044;3.746;2024-01-06T02:02:02;5.57;;;1.30;;
13327;SDS011;6733;51.044;3.746;2024-01-06T02:04:28;5.47;;;2.03;;
13327;SDS011;6733;51.044;3.746;2024-01-06T02:06:54;3.20;;;1.40;;
13327;SDS011;6733;51.044;3.746;2024-01-06T02:09:20;4.97;;;1.50;;
13327;SDS011;6733;51.044;3.746;2024-01-06T02:11:52;3.33;;;1.30;;
13327;SDS011;6733;51.044;3.746;2024-01-06T02:14:18;3.87;;;1.50;;
13327;SDS011;6733;51.044;3.746;2024-01-06T02:16:45;3.03;;;1.20;;
13327;SDS011;6733;51.044;3.746;2024-01-06T02:19:11;5.10;;;1.43;;
13327;SDS011;6733;51.044;3.746;2024-01-06T02:21:40;2.77;;;1.27;;
13327;SDS011;6733;51.044;3.746;2024-01-06T02:24:08;1.40;;;0.90;;
13327;SDS011;6733;51.044;3.746;2024-01-06T02:26:35;3.07;;;1.10;;
13327;SDS011;6733;51.044;3.746;2024-01-06T02:29:01;3.37;;;1.07;;
13327;SDS011;6733;51.044;3.746;2024-01-06T02:31:27;3.70;;;1.20;;
13327;SDS011;6733;51.044;3.746;2024-01-06T02:33:53;1.43;;;0.90;;
13327;SDS011;6733;51.044;3.746;2024-01-06T02:36:45;2.57;;;1.27;;
13327;SDS011;6733;51.044;3.746;2024-01-06T02:39:36;4.00;;;1.93;;
13327;SDS011;6733;51.044;3.746;2024-01-06T02:42:27;4.23;;;1.40;;
13327;SDS011;6733;51.044;3.746;2024-01-06T02:45:17;4.70;;;1.50;;
13327;SDS011;6733;51.044;3.746;2024-01-06T02:48:09;3.00;;;1.40;;
13327;SDS011;6733;51.044;3.746;2024-01-06T02:51:00;4.93;;;1.87;;
13327;SDS011;6733;51.044;3.746;2024-01-06T02:53:51;3.97;;;1.43;;
13327;SDS011;6733;51.044;3.746;2024-01-06T02:56:42;2.40;;;1.60;;
13327;SDS011;6733;51.044;3.746;2024-01-06T02:59:33;1.97;;;1.40;;
13327;SDS011;6733;51.044;3.746;2024-01-06T03:02:03;2.70;;;1.40;;
13327;SDS011;6733;51.044;3.746;2024-01-06T03:04:30;1.70;;;1.37;;
13327;SDS011;6733;51.044;3.746;2024-01-06T03:06:56;4.33;;;1.60;;
13327;SDS011;6733;51.044;3.746;2024-01-06T03:09:22;2.83;;;1.43;;
13327;SDS011;6733;51.044;3.746;2024-01-06T03:11:48;3.40;;;1.50;;
13327;SDS011;6733;51.044;3.746;2024-01-06T03:14:14;2.00;;;1.40;;
13327;SDS011;6733;51.044;3.746;2024-01-06T03:16:40;2.37;;;1.77;;
13327;SDS011;6733;51.044;3.746;2024-01-06T03:19:06;2.67;;;1.30;;
13327;SDS011;6733;51.044;3.746;2024-01-06T03:21:33;3.90;;;1.27;;
13327;SDS011;6733;51.044;3.746;2024-01-06T03:23:59;1.70;;;1.20;;
13327;SDS011;6733;51.044;3.746;2024-01-06T03:26:25;2.60;;;1.20;;
13327;SDS011;6733;51.044;3.746;2024-01-06T03:28:52;3.10;;;1.13;;
13327;SDS011;6733;51.044;3.746;2024-01-06T03:31:20;4.23;;;1.40;;
13327;SDS011;6733;51.044;3.746;2024-01-06T03:33:47;2.73;;;1.50;;
13327;SDS011;6733;51.044;3.746;2024-01-06T03:36:13;3.93;;;1.40;;
13327;SDS011;6733;51.044;3.746;2024-01-06T03:38:42;2.93;;;1.90;;
13327;SDS011;6733;51.044;3.746;2024-01-06T03:41:08;2.80;;;1.60;;
13327;SDS011;6733;51.044;3.746;2024-01-06T03:43:34;4.33;;;1.63;;
13327;SDS011;6733;51.044;3.746;2024-01-06T03:46:00;1.93;;;1.50;;
13327;SDS011;6733;51.044;3.746;2024-01-06T03:48:27;2.60;;;1.60;;
13327;SDS011;6733;51.044;3.746;2024-01-06T03:50:53;3.10;;;1.80;;
13327;SDS011;6733;51.044;3.746;2024-01-06T03:53:19;2.13;;;1.50;;
13327;SDS011;6733;51.044;3.746;2024-01-06T03:55:45;4.50;;;2.00;;
13327;SDS011;6733;51.044;3.746;2024-01-06T03:58:11;2.30;;;1.83;;
13327;SDS011;6733;51.044;3.746;2024-01-06T04:00:37;4.30;;;1.80;;
13327;SDS011;6733;51.044;3.746;2024-01-06T04:03:04;3.67;;;1.90;;
13327;SDS011;6733;51.044;3.746;2024-01-06T04:05:31;5.27;;;2.00;;
13327;SDS011;6733;51.044;3.746;2024-01-06T04:07:57;3.40;;;1.80;;
13327;SDS011;6733;51.044;3.746;2024-01-06T04:10:24;3.30;;;1.70;;
13327;SDS011;6733;51.044;3.746;2024-01-06T04:12:50;3.23;;;1.50;;
13327;SDS011;6733;51.044;3.746;2024-01-06T04:15:16;3.27;;;1.90;;
13327;SDS011;6733;51.044;3.746;2024-01-06T04:17:42;2.00;;;1.70;;
13327;SDS011;6733;51.044;3.746;2024-01-06T04:20:09;2.30;;;1.50;;
13327;SDS011;6733;51.044;3.746;2024-01-06T04:22:38;2.20;;;1.80;;
13327;SDS011;6733;51.044;3.746;2024-01-06T04:25:04;4.23;;;1.87;;
13327;SDS011;6733;51.044;3.746;2024-01-06T04:27:31;2.80;;;1.60;;
13327;SDS011;6733;51.044;3.746;2024-01-06T04:29:59;4.27;;;2.07;;
13327;SDS011;6733;51.044;3.746;2024-01-06T04:32:25;5.00;;;2.03;;
13327;SDS011;6733;51.044;3.746;2024-01-06T04:34:51;3.83;;;1.90;;
13327;SDS011;6733;51.044;3.746;2024-01-06T04:37:18;3.50;;;1.80;;
13327;SDS011;6733;51.044;3.746;2024-01-06T04:39:44;3.30;;;1.80;;
13327;SDS011;6733;51.044;3.746;2024-01-06T04:42:10;3.10;;;2.20;;
13327;SDS011;6733;51.044;3.746;2024-01-06T04:44:36;3.13;;;2.23;;
13327;SDS011;6733;51.044;3.746;2024-01-06T04:47:02;2.90;;;1.90;;
13327;SDS011;6733;51.044;3.746;2024-01-06T04:49:29;3.23;;;2.13;;
13327;SDS011;6733;51.044;3.746;2024-01-06T04:51:55;2.47;;;2.10;;
13327;SDS011;6733;51.044;3.746;2024-01-06T04:54:21;2.33;;;2.10;;
13327;SDS011;6733;51.044;3.746;2024-01-06T04:56:48;3.77;;;2.33;;
13327;SDS011;6733;51.044;3.746;2024-01-06T04:59:14;4.53;;;2.70;;
13327;SDS011;6733;51.044;3.746;2024-01-06T05:01:40;4.80;;;2.90;;
13327;SDS011;6733;51.044;3.746;2024-01-06T05:04:06;3.20;;;2.90;;
13327;SDS011;6733;51.044;3.746;2024-01-06T05:06:32;3.97;;;3.13;;
13327;SDS011;6733;51.044;3.746;2024-01-06T05:08:59;3.70;;;2.93;;
13327;SDS011;6733;51.044;3.746;2024-01-06T05:11:25;3.73;;;2.87;;
13327;SDS011;6733;51.044;3.746;2024-01-06T05:13:52;4.70;;;3.57;;
13327;SDS011;6733;51.044;3.746;2024-01-06T05:16:18;7.17;;;3.50;;
13327;SDS011;6733;51.044;3.746;2024-01-06T05:18:44;4.30;;;2.97;;
13327;SDS011;6733;51.044;3.746;2024-01-06T05:21:10;5.37;;;3.77;;
13327;SDS011;6733;51.044;3.746;2024-01-06T05:23:36;3.67;;;2.97;;
13327;SDS011;6733;51.044;3.746;2024-01-06T05:26:02;3.70;;;2.90;;
13327;SDS011;6733;51.044;3.746;2024-01-06T05:28:29;4.00;;;2.60;;
13327;SDS011;6733;51.044;3.746;2024-01-06T05:30:55;3.47;;;3.00;;
13327;SDS011;6733;51.044;3.746;2024-01-06T05:33:21;4.67;;;3.27;;
13327;SDS011;6733;51.044;3.746;2024-01-06T05:35:47;5.03;;;3.20;;
13327;SDS011;6733;51.044;3.746;2024-01-06T05:38:14;3.67;;;3.37;;
13327;SDS011;6733;51.044;3.746;2024-01-06T05:40:40;4.17;;;3.77;;
13327;SDS011;6733;51.044;3.746;2024-01-06T05:43:07;5.03;;;4.20;;
13327;SDS011;6733;51.044;3.746;2024-01-06T05:45:33;5.43;;;4.40;;
13327;SDS011;6733;51.044;3.746;2024-01-06T05:47:59;7.63;;;4.80;;
13327;SDS011;6733;51.044;3.746;2024-01-06T05:50:25;6.70;;;4.00;;
13327;SDS011;6733;51.044;3.746;2024-01-06T05:52:51;5.07;;;4.10;;
13327;SDS011;6733;51.044;3.746;2024-01-06T05:55:18;8.90;;;4.57;;
13327;SDS011;6733;51.044;3.746;2024-01-06T05:57:44;5.23;;;3.93;;
13327;SDS011;6733;51.044;3.746;2024-01-06T06:00:11;4.80;;;3.93;;
13327;SDS011;6733;51.044;3.746;2024-01-06T06:02:39;6.37;;;3.90;;
13327;SDS011;6733;51.044;3.746;2024-01-06T06:05:05;5.60;;;3.83;;
13327;SDS011;6733;51.044;3.746;2024-01-06T06:07:31;5.47;;;4.40;;
13327;SDS011;6733;51.044;3.746;2024-01-06T06:09:57;5.87;;;4.60;;
13327;SDS011;6733;51.044;3.746;2024-01-06T06:12:24;8.10;;;4.57;;
13327;SDS011;6733;51.044;3.746;2024-01-06T06:14:50;6.87;;;4.20;;
13327;SDS011;6733;51.044;3.746;2024-01-06T06:17:16;6.97;;;4.67;;
13327;SDS011;6733;51.044;3.746;2024-01-06T06:19:42;7.57;;;5.47;;
13327;SDS011;6733;51.044;3.746;2024-01-06T06:22:08;5.90;;;5.00;;
13327;SDS011;6733;51.044;3.746;2024-01-06T06:24:35;9.40;;;5.43;;
13327;SDS011;6733;51.044;3.746;2024-01-06T06:27:01;8.77;;;5.27;;
13327;SDS011;6733;51.044;3.746;2024-01-06T06:29:27;6.00;;;4.87;;
13327;SDS011;6733;51.044;3.746;2024-01-06T06:31:54;11.83;;;5.17;;
13327;SDS011;6733;51.044;3.746;2024-01-06T06:34:20;7.30;;;4.90;;
13327;SDS011;6733;51.044;3.746;2024-01-06T06:36:46;9.43;;;5.50;;
13327;SDS011;6733;51.044;3.746;2024-01-06T06:39:12;7.77;;;5.17;;
13327;SDS011;6733;51.044;3.746;2024-01-06T06:41:39;8.67;;;5.50;;
13327;SDS011;6733;51.044;3.746;2024-01-06T06:44:05;8.33;;;5.50;;
13327;SDS011;6733;51.044;3.746;2024-01-06T06:46:31;9.00;;;5.47;;
13327;SDS011;6733;51.044;3.746;2024-01-06T06:48:57;6.93;;;5.03;;
13327;SDS011;6733;51.044;3.746;2024-01-06T06:51:24;9.37;;;5.27;;
13327;SDS011;6733;51.044;3.746;2024-01-06T06:53:52;8.10;;;5.40;;
13327;SDS011;6733;51.044;3.746;2024-01-06T06:56:18;9.53;;;5.50;;
13327;SDS011;6733;51.044;3.746;2024-01-06T06:58:44;6.20;;;5.60;;
13327;SDS011;6733;51.044;3.746;2024-01-06T07:01:11;8.50;;;5.23;;
13327;SDS011;6733;51.044;3.746;2024-01-06T07:03:40;8.13;;;5.47;;
13327;SDS011;6733;51.044;3.746;2024-01-06T07:06:06;7.40;;;5.10;;
13327;SDS011;6733;51.044;3.746;2024-01-06T07:08:32;6.43;;;5.03;;
13327;SDS011;6733;51.044;3.746;2024-01-06T07:10:59;10.27;;;5.27;;
13327;SDS011;6733;51.044;3.746;2024-01-06T07:13:26;8.87;;;5.20;;
13327;SDS011;6733;51.044;3.746;2024-01-06T07:15:52;11.40;;;5.37;;
13327;SDS011;6733;51.044;3.746;2024-01-06T07:18:18;7.83;;;5.33;;
13327;SDS011;6733;51.044;3.746;2024-01-06T07:20:48;8.83;;;4.87;;
13327;SDS011;6733;51.044;3.746;2024-01-06T07:23:14;7.27;;;5.33;;
13327;SDS011;6733;51.044;3.746;2024-01-06T07:25:41;9.47;;;5.13;;
13327;SDS011;6733;51.044;3.746;2024-01-06T07:28:07;8.30;;;5.27;;
13327;SDS011;6733;51.044;3.746;2024-01-06T07:30:33;7.33;;;5.03;;
13327;SDS011;6733;51.044;3.746;2024-01-06T07:33:00;8.20;;;5.60;;
13327;SDS011;6733;51.044;3.746;2024-01-06T07:35:26;7.33;;;5.00;;
13327;SDS011;6733;51.044;3.746;2024-01-06T07:37:53;7.57;;;5.50;;
13327;SDS011;6733;51.044;3.746;2024-01-06T07:40:20;7.43;;;5.33;;
13327;SDS011;6733;51.044;3.746;2024-01-06T07:42:46;7.23;;;5.30;;
13327;SDS011;6733;51.044;3.746;2024-01-06T07:45:12;8.80;;;5.77;;
13327;SDS011;6733;51.044;3.746;2024-01-06T07:47:38;9.37;;;5.83;;
13327;SDS011;6733;51.044;3.746;2024-01-06T07:50:05;8.90;;;5.43;;
13327;SDS011;6733;51.044;3.746;2024-01-06T07:52:31;7.03;;;5.67;;
13327;SDS011;6733;51.044;3.746;2024-01-06T07:54:58;9.57;;;5.60;;
13327;SDS011;6733;51.044;3.746;2024-01-06T07:57:24;7.20;;;5.00;;
13327;SDS011;6733;51.044;3.746;2024-01-06T07:59:50;4.70;;;3.97;;
13327;SDS011;6733;51.044;3.746;2024-01-06T08:02:16;5.43;;;3.47;;
13327;SDS011;6733;51.044;3.746;2024-01-06T08:04:42;3.47;;;2.93;;
13327;SDS011;6733;51.044;3.746;2024-01-06T08:07:09;6.20;;;3.53;;
13327;SDS011;6733;51.044;3.746;2024-01-06T08:09:35;3.20;;;2.67;;
13327;SDS011;6733;51.044;3.746;2024-01-06T08:12:01;5.17;;;3.40;;
13327;SDS011;6733;51.044;3.746;2024-01-06T08:14:28;5.87;;;4.23;;
13327;SDS011;6733;51.044;3.746;2024-01-06T08:16:54;6.67;;;4.30;;
13327;SDS011;6733;51.044;3.746;2024-01-06T08:19:21;6.93;;;4.70;;
13327;SDS011;6733;51.044;3.746;2024-01-06T08:21:47;8.50;;;4.93;;
13327;SDS011;6733;51.044;3.746;2024-01-06T08:24:14;8.57;;;5.77;;
13327;SDS011;6733;51.044;3.746;2024-01-06T08:26:40;8.43;;;6.50;;
13327;SDS011;6733;51.044;3.746;2024-01-06T08:29:06;7.93;;;6.07;;
13327;SDS011;6733;51.044;3.746;2024-01-06T08:31:32;7.30;;;6.13;;
13327;SDS011;6733;51.044;3.746;2024-01-06T08:33:58;7.87;;;5.47;;
13327;SDS011;6733;51.044;3.746;2024-01-06T08:36:25;8.37;;;5.47;;
13327;SDS011;6733;51.044;3.746;2024-01-06T08:38:51;7.23;;;5.47;;
13327;SDS011;6733;51.044;3.746;2024-01-06T08:41:17;6.23;;;5.20;;
13327;SDS011;6733;51.044;3.746;2024-01-06T08:43:43;8.30;;;5.30;;
13327;SDS011;6733;51.044;3.746;2024-01-06T08:46:09;7.90;;;5.90;;
13327;SDS011;6733;51.044;3.746;2024-01-06T08:48:35;5.33;;;4.23;;
13327;SDS011;6733;51.044;3.746;2024-01-06T08:51:02;7.90;;;4.33;;
13327;SDS011;6733;51.044;3.746;2024-01-06T08:53:28;8.07;;;4.27;;
13327;SDS011;6733;51.044;3.746;2024-01-06T08:55:54;4.73;;;3.90;;
13327;SDS011;6733;51.044;3.746;2024-01-06T08:58:20;5.47;;;4.57;;
13327;SDS011;6733;51.044;3.746;2024-01-06T09:00:46;4.93;;;4.23;;
13327;SDS011;6733;51.044;3.746;2024-01-06T09:03:13;6.23;;;4.10;;
13327;SDS011;6733;51.044;3.746;2024-01-06T09:05:39;5.20;;;3.80;;
13327;SDS011;6733;51.044;3.746;2024-01-06T09:08:05;6.90;;;3.73;;
13327;SDS011;6733;51.044;3.746;2024-01-06T09:10:32;5.20;;;3.47;;
13327;SDS011;6733;51.044;3.746;2024-01-06T09:12:58;5.33;;;3.40;;
13327;SDS011;6733;51.044;3.746;2024-01-06T09:15:24;4.07;;;3.10;;
13327;SDS011;6733;51.044;3.746;2024-01-06T09:17:50;3.53;;;2.80;;
13327;SDS011;6733;51.044;3.746;2024-01-06T09:20:16;4.43;;;2.80;;
13327;SDS011;6733;51.044;3.746;2024-01-06T09:22:43;4.80;;;2.40;;
13327;SDS011;6733;51.044;3.746;2024-01-06T09:25:09;3.27;;;2.17;;
13327;SDS011;6733;51.044;3.746;2024-01-06T09:27:35;2.80;;;2.37;;
13327;SDS011;6733;51.044;3.746;2024-01-06T09:30:01;4.33;;;2.23;;
13327;SDS011;6733;51.044;3.746;2024-01-06T09:32:28;4.03;;;2.33;;
13327;SDS011;6733;51.044;3.746;2024-01-06T09:34:54;5.83;;;3.50;;
13327;SDS011;6733;51.044;3.746;2024-01-06T09:37:20;2.83;;;2.50;;
13327;SDS011;6733;51.044;3.746;2024-01-06T09:39:47;4.20;;;2.60;;
13327;SDS011;6733;51.044;3.746;2024-01-06T09:42:13;6.17;;;2.83;;
13327;SDS011;6733;51.044;3.746;2024-01-06T09:44:39;4.63;;;2.77;;
13327;SDS011;6733;51.044;3.746;2024-01-06T09:47:05;4.37;;;2.97;;
13327;SDS011;6733;51.044;3.746;2024-01-06T09:49:34;2.63;;;2.43;;
13327;SDS011;6733;51.044;3.746;2024-01-06T09:52:03;4.97;;;3.30;;
13327;SDS011;6733;51.044;3.746;2024-01-06T09:54:34;5.50;;;2.97;;
13327;SDS011;6733;51.044;3.746;2024-01-06T09:57:02;5.10;;;2.67;;
13327;SDS011;6733;51.044;3.746;2024-01-06T09:59:31;5.00;;;2.90;;
13327;SDS011;6733;51.044;3.746;2024-01-06T10:02:00;4.70;;;2.60;;
13327;SDS011;6733;51.044;3.746;2024-01-06T10:04:27;4.70;;;3.03;;
13327;SDS011;6733;51.044;3.746;2024-01-06T10:06:53;6.30;;;3.27;;
13327;SDS011;6733;51.044;3.746;2024-01-06T10:09:25;4.33;;;3.60;;
13327;SDS011;6733;51.044;3.746;2024-01-06T10:11:56;5.50;;;3.83;;
13327;SDS011;6733;51.044;3.746;2024-01-06T10:14:23;5.53;;;3.90;;
13327;SDS011;6733;51.044;3.746;2024-01-06T10:16:51;4.43;;;3.67;;
13327;SDS011;6733;51.044;3.746;2024-01-06T10:19:18;4.53;;;3.33;;
13327;SDS011;6733;51.044;3.746;2024-01-06T10:21:44;4.57;;;2.83;;
13327;SDS011;6733;51.044;3.746;2024-01-06T10:24:10;5.90;;;3.50;;
13327;SDS011;6733;51.044;3.746;2024-01-06T10:26:37;5.07;;;3.50;;
13327;SDS011;6733;51.044;3.746;2024-01-06T10:29:04;4.03;;;3.37;;
13327;SDS011;6733;51.044;3.746;2024-01-06T10:31:30;5.60;;;4.13;;
13327;SDS011;6733;51.044;3.746;2024-01-06T10:33:56;5.90;;;3.80;;
13327;SDS011;6733;51.044;3.746;2024-01-06T10:36:23;5.47;;;4.03;;
13327;SDS011;6733;51.044;3.746;2024-01-06T10:38:49;4.23;;;3.80;;
13327;SDS011;6733;51.044;3.746;2024-01-06T10:41:16;4.73;;;3.33;;
13327;SDS011;6733;51.044;3.746;2024-01-06T10:43:42;4.10;;;2.73;;
13327;SDS011;6733;51.044;3.746;2024-01-06T10:46:10;5.50;;;2.50;;
13327;SDS011;6733;51.044;3.746;2024-01-06T10:48:36;4.83;;;2.60;;
13327;SDS011;6733;51.044;3.746;2024-01-06T10:51:08;3.70;;;2.77;;
13327;SDS011;6733;51.044;3.746;2024-01-06T10:53:35;5.80;;;4.00;;
13327;SDS011;6733;51.044;3.746;2024-01-06T10:56:03;2.73;;;2.37;;
13327;SDS011;6733;51.044;3.746;2024-01-06T10:58:32;4.13;;;2.33;;
13327;SDS011;6733;51.044;3.746;2024-01-06T11:01:03;3.60;;;2.30;;
13327;SDS011;6733;51.044;3.746;2024-01-06T11:03:29;6.93;;;2.80;;
13327;SDS011;6733;51.044;3.746;2024-01-06T11:05:58;3.73;;;2.70;;
13327;SDS011;6733;51.044;3.746;2024-01-06T11:08:25;3.80;;;2.93;;
13327;SDS011;6733;51.044;3.746;2024-01-06T11:10:54;4.90;;;3.00;;
13327;SDS011;6733;51.044;3.746;2024-01-06T11:13:23;6.40;;;3.70;;
13327;SDS011;6733;51.044;3.746;2024-01-06T11:15:50;4.37;;;3.10;;
13327;SDS011;6733;51.044;3.746;2024-01-06T11:18:34;3.30;;;2.60;;
13327;SDS011;6733;51.044;3.746;2024-01-06T11:21:18;3.40;;;2.60;;
13327;SDS011;6733;51.044;3.746;2024-01-06T11:26:50;6.60;;;2.67;;
13327;SDS011;6733;51.044;3.746;2024-01-06T11:29:19;2.50;;;1.90;;
13327;SDS011;6733;51.044;3.746;2024-01-06T11:32:16;3.17;;;2.03;;
13327;SDS011;6733;51.044;3.746;2024-01-06T11:34:48;5.43;;;2.60;;
13327;SDS011;6733;51.044;3.746;2024-01-06T11:37:17;6.53;;;3.20;;
13327;SDS011;6733;51.044;3.746;2024-01-06T11:39:44;4.43;;;2.30;;
13327;SDS011;6733;51.044;3.746;2024-01-06T11:42:10;5.83;;;2.40;;
13327;SDS011;6733;51.044;3.746;2024-01-06T11:44:43;3.50;;;2.23;;
13327;SDS011;6733;51.044;3.746;2024-01-06T11:47:11;2.47;;;1.83;;
13327;SDS011;6733;51.044;3.746;2024-01-06T11:49:38;3.83;;;1.80;;
13327;SDS011;6733;51.044;3.746;2024-01-06T11:52:04;4.67;;;2.13;;
13327;SDS011;6733;51.044;3.746;2024-01-06T11:54:31;3.80;;;2.30;;
13327;SDS011;6733;51.044;3.746;2024-01-06T11:56:58;5.07;;;2.50;;
13327;SDS011;6733;51.044;3.746;2024-01-06T11:59:24;4.10;;;2.30;;
13327;SDS011;6733;51.044;3.746;2024-01-06T12:01:50;2.07;;;1.87;;
13327;SDS011;6733;51.044;3.746;2024-01-06T12:04:17;4.67;;;2.10;;
13327;SDS011;6733;51.044;3.746;2024-01-06T12:06:43;5.17;;;2.40;;
13327;SDS011;6733;51.044;3.746;2024-01-06T12:09:11;4.60;;;2.20;;
13327;SDS011;6733;51.044;3.746;2024-01-06T12:11:41;4.60;;;2.40;;
13327;SDS011;6733;51.044;3.746;2024-01-06T12:14:10;5.50;;;2.93;;
13327;SDS011;6733;51.044;3.746;2024-01-06T12:16:36;5.47;;;2.47;;
13327;SDS011;6733;51.044;3.746;2024-01-06T12:19:03;8.13;;;2.53;;
13327;SDS011;6733;51.044;3.746;2024-01-06T12:21:29;4.77;;;2.60;;
13327;SDS011;6733;51.044;3.746;2024-01-06T12:24:15;5.03;;;2.50;;
13327;SDS011;6733;51.044;3.746;2024-01-06T12:26:46;3.40;;;2.30;;
13327;SDS011;6733;51.044;3.746;2024-01-06T12:29:12;4.27;;;2.30;;
13327;SDS011;6733;51.044;3.746;2024-01-06T12:31:39;4.53;;;2.17;;
13327;SDS011;6733;51.044;3.746;2024-01-06T12:34:07;3.17;;;2.40;;
13327;SDS011;6733;51.044;3.746;2024-01-06T12:36:37;5.33;;;2.20;;
13327;SDS011;6733;51.044;3.746;2024-01-06T12:39:04;5.60;;;2.30;;
13327;SDS011;6733;51.044;3.746;2024-01-06T12:41:32;3.43;;;2.40;;
13327;SDS011;6733;51.044;3.746;2024-01-06T12:44:01;3.63;;;2.30;;
13327;SDS011;6733;51.044;3.746;2024-01-06T12:46:27;4.10;;;2.07;;
13327;SDS011;6733;51.044;3.746;2024-01-06T12:48:54;2.80;;;1.80;;
13327;SDS011;6733;51.044;3.746;2024-01-06T12:51:20;3.10;;;2.20;;
13327;SDS011;6733;51.044;3.746;2024-01-06T12:53:46;3.23;;;2.20;;
13327;SDS011;6733;51.044;3.746;2024-01-06T12:56:12;4.23;;;2.30;;
13327;SDS011;6733;51.044;3.746;2024-01-06T12:58:40;3.73;;;2.13;;
13327;SDS011;6733;51.044;3.746;2024-01-06T13:01:07;2.97;;;2.17;;
13327;SDS011;6733;51.044;3.746;2024-01-06T13:03:33;4.93;;;1.87;;
13327;SDS011;6733;51.044;3.746;2024-01-06T13:05:59;4.30;;;2.43;;
13327;SDS011;6733;51.044;3.746;2024-01-06T13:08:26;4.20;;;2.33;;
13327;SDS011;6733;51.044;3.746;2024-01-06T13:10:54;3.27;;;2.00;;
13327;SDS011;6733;51.044;3.746;2024-01-06T13:13:21;3.43;;;1.70;;
13327;SDS011;6733;51.044;3.746;2024-01-06T13:15:47;4.13;;;1.60;;
13327;SDS011;6733;51.044;3.746;2024-01-06T13:18:14;5.43;;;2.00;;
13327;SDS011;6733;51.044;3.746;2024-01-06T13:20:42;3.33;;;2.00;;
13327;SDS011;6733;51.044;3.746;2024-01-06T13:23:09;5.23;;;2.20;;
13327;SDS011;6733;51.044;3.746;2024-01-06T13:25:37;6.10;;;2.40;;
13327;SDS011;6733;51.044;3.746;2024-01-06T13:28:05;4.10;;;1.93;;
13327;SDS011;6733;51.044;3.746;2024-01-06T13:30:32;4.40;;;2.13;;
13327;SDS011;6733;51.044;3.746;2024-01-06T13:32:58;4.57;;;2.67;;
13327;SDS011;6733;51.044;3.746;2024-01-06T13:35:25;4.43;;;2.10;;
13327;SDS011;6733;51.044;3.746;2024-01-06T13:37:52;3.20;;;2.63;;
13327;SDS011;6733;51.044;3.746;2024-01-06T13:40:18;7.30;;;2.50;;
13327;SDS011;6733;51.044;3.746;2024-01-06T13:42:48;4.83;;;2.80;;
13327;SDS011;6733;51.044;3.746;2024-01-06T13:45:18;5.77;;;2.87;;
13327;SDS011;6733;51.044;3.746;2024-01-06T13:47:44;6.37;;;4.07;;
13327;SDS011;6733;51.044;3.746;2024-01-06T13:50:11;4.73;;;2.70;;
13327;SDS011;6733;51.044;3.746;2024-01-06T13:52:38;3.97;;;2.30;;
13327;SDS011;6733;51.044;3.746;2024-01-06T13:55:05;6.40;;;2.30;;
13327;SDS011;6733;51.044;3.746;2024-01-06T13:57:32;3.70;;;2.03;;
13327;SDS011;6733;51.044;3.746;2024-01-06T13:59:58;3.20;;;2.60;;
13327;SDS011;6733;51.044;3.746;2024-01-06T14:02:24;4.17;;;2.07;;
13327;SDS011;6733;51.044;3.746;2024-01-06T14:04:51;4.60;;;2.23;;
13327;SDS011;6733;51.044;3.746;2024-01-06T14:07:17;3.07;;;2.00;;
13327;SDS011;6733;51.044;3.746;2024-01-06T14:09:45;3.40;;;2.20;;
13327;SDS011;6733;51.044;3.746;2024-01-06T14:12:11;1.93;;;1.77;;
13327;SDS011;6733;51.044;3.746;2024-01-06T14:14:39;3.83;;;2.00;;
13327;SDS011;6733;51.044;3.746;2024-01-06T14:17:07;2.43;;;1.53;;
13327;SDS011;6733;51.044;3.746;2024-01-06T14:19:33;2.67;;;1.53;;
13327;SDS011;6733;51.044;3.746;2024-01-06T14:22:00;3.33;;;1.73;;
13327;SDS011;6733;51.044;3.746;2024-01-06T14:24:26;2.83;;;1.90;;
13327;SDS011;6733;51.044;3.746;2024-01-06T14:26:53;3.13;;;1.70;;
13327;SDS011;6733;51.044;3.746;2024-01-06T14:29:20;4.27;;;1.87;;
13327;SDS011;6733;51.044;3.746;2024-01-06T14:31:47;3.77;;;2.00;;
13327;SDS011;6733;51.044;3.746;2024-01-06T14:34:14;2.73;;;2.10;;
13327;SDS011;6733;51.044;3.746;2024-01-06T14:36:40;3.33;;;1.53;;
13327;SDS011;6733;51.044;3.746;2024-01-06T14:39:14;2.30;;;1.60;;
13327;SDS011;6733;51.044;3.746;2024-01-06T14:41:40;4.47;;;2.30;;
13327;SDS011;6733;51.044;3.746;2024-01-06T14:44:07;3.63;;;1.90;;
13327;SDS011;6733;51.044;3.746;2024-01-06T14:46:33;4.53;;;2.00;;
13327;SDS011;6733;51.044;3.746;2024-01-06T14:49:01;3.27;;;1.80;;
13327;SDS011;6733;51.044;3.746;2024-01-06T14:51:28;4.73;;;2.20;;
13327;SDS011;6733;51.044;3.746;2024-01-06T14:53:58;3.40;;;2.27;;
13327;SDS011;6733;51.044;3.746;2024-01-06T14:56:24;6.33;;;2.60;;
13327;SDS011;6733;51.044;3.746;2024-01-06T14:58:51;5.60;;;2.40;;
13327;SDS011;6733;51.044;3.746;2024-01-06T15:01:17;4.03;;;2.70;;
13327;SDS011;6733;51.044;3.746;2024-01-06T15:03:44;4.43;;;2.90;;
13327;SDS011;6733;51.044;3.746;2024-01-06T15:06:11;2.87;;;2.20;;